Time;durP1;ratioP1;P1;durP2;ratioP2;P2;SDS_P1;SDS_P2;PMS_P1;PMS_P2;Temp;Humidity;BMP_temperature;BMP_pressure;BME280_temperature;BME280_humidity;BME280_pressure;Samples;Min_cycle;Max_cycle;Signal;HPM_P1;HPM_P2
2022/06/13 00:00:06;;;;;;;3.92;3.63;;;;;;;;;;10415070;28;20073;-80
2022/06/13 00:05:07;;;;;;;4.28;3.90;;;;;;;;;;10428952;28;20088;-80
2022/06/13 00:10:08;;;;;;;4.15;3.75;;;;;;;;;;10403050;28;20034;-80
2022/06/13 00:15:14;;;;;;;4.47;4.07;;;;;;;;;;10413888;28;20426;-84
2022/06/13 00:20:16;;;;;;;4.20;3.80;;;;;;;;;;10431439;28;20057;-82
2022/06/13 00:25:17;;;;;;;5.35;4.10;;;;;;;;;;10413471;28;20045;-82
2022/06/13 00:30:26;;;;;;;6.10;4.82;;;;;;;;;;10414922;28;20122;-82
2022/06/13 00:35:31;;;;;;;4.47;4.07;;;;;;;;;;10413356;28;20057;-81
2022/06/13 00:40:43;;;;;;;4.20;3.80;;;;;;;;;;10432098;28;20102;-83
2022/06/13 00:45:43;;;;;;;5.13;4.30;;;;;;;;;;10424427;28;20056;-82
2022/06/13 00:50:58;;;;;;;4.70;4.30;;;;;;;;;;10416413;28;20661;-84
2022/06/13 00:56:11;;;;;;;4.53;4.05;;;;;;;;;;10435078;28;20091;-84
2022/06/13 01:01:13;;;;;;;4.32;3.50;;;;;;;;;;10441312;28;20029;-84
2022/06/13 01:06:48;;;;;;;3.88;3.50;;;;;;;;;;10454935;28;20088;-82
2022/06/13 01:11:49;;;;;;;;;;;;;;;;;;10381768;28;20036;-81
2022/06/13 01:17:13;;;;;;;3.40;3.10;;;;;;;;;;10431626;28;20280;-82
2022/06/13 01:22:34;;;;;;;2.85;2.47;;;;;;;;;;10385980;28;20389;-80
2022/06/13 01:27:40;;;;;;;2.80;2.60;;;;;;;;;;10400508;28;20481;-82
2022/06/13 01:32:43;;;;;;;3.17;2.45;;;;;;;;;;10428072;28;20076;-81
2022/06/13 01:38:06;;;;;;;3.53;2.83;;;;;;;;;;10371440;28;20050;-81
2022/06/13 01:43:13;;;;;;;2.80;2.60;;;;;;;;;;10414746;28;20049;-82
2022/06/13 01:48:24;;;;;;;2.42;2.22;;;;;;;;;;10410892;28;20120;-81
2022/06/13 01:53:48;;;;;;;3.58;2.55;;;;;;;;;;10411464;28;20081;-82
2022/06/13 01:59:09;;;;;;;3.88;2.47;;;;;;;;;;10405374;28;20099;-80
2022/06/13 02:04:10;;;;;;;3.30;2.70;;;;;;;;;;10414758;28;20049;-82
2022/06/13 02:09:17;;;;;;;3.67;2.30;;;;;;;;;;10413337;28;20055;-83
2022/06/13 02:14:57;;;;;;;3.35;2.30;;;;;;;;;;10399756;28;20466;-82
2022/06/13 02:20:20;;;;;;;3.15;2.38;;;;;;;;;;10222915;29;20039;-81
2022/06/13 02:25:33;;;;;;;2.63;2.38;;;;;;;;;;10355098;28;20073;-81
2022/06/13 02:30:42;;;;;;;3.00;2.38;;;;;;;;;;10396440;28;20045;-83
2022/06/13 02:35:48;;;;;;;3.00;2.20;;;;;;;;;;10398256;28;20048;-83
2022/06/13 02:40:56;;;;;;;3.80;2.60;;;;;;;;;;10420198;28;20046;-85
2022/06/13 02:46:06;;;;;;;3.85;3.00;;;;;;;;;;10429989;28;20058;-83
2022/06/13 02:51:12;;;;;;;3.55;2.90;;;;;;;;;;10419928;28;20119;-82
2022/06/13 02:56:26;;;;;;;4.88;2.85;;;;;;;;;;10407474;28;20045;-83
2022/06/13 03:01:34;;;;;;;3.20;2.90;;;;;;;;;;10423772;28;20049;-83
2022/06/13 03:07:17;;;;;;;4.25;3.40;;;;;;;;;;10403327;28;20045;-82
2022/06/13 03:12:36;;;;;;;4.38;3.15;;;;;;;;;;10378562;28;20382;-83
2022/06/13 03:17:44;;;;;;;3.50;3.20;;;;;;;;;;10385751;28;20105;-81
2022/06/13 03:22:44;;;;;;;3.85;3.50;;;;;;;;;;10430474;28;20046;-81
2022/06/13 03:27:58;;;;;;;3.50;3.20;;;;;;;;;;10417118;28;20173;-81
2022/06/13 03:38:31;;;;;;;3.90;3.42;;;;;;;;;;10418612;28;20119;-84
2022/06/13 03:43:46;;;;;;;3.88;3.58;;;;;;;;;;10447385;28;20171;-84
2022/06/13 03:48:58;;;;;;;4.47;3.67;;;;;;;;;;10430343;28;20092;-82
2022/06/13 03:54:07;;;;;;;3.60;3.30;;;;;;;;;;10438340;28;20041;-82
2022/06/13 03:59:14;;;;;;;3.63;3.20;;;;;;;;;;10405478;28;20061;-83
2022/06/13 04:04:18;;;;;;;3.35;2.97;;;;;;;;;;10449222;28;20046;-82
2022/06/13 04:09:20;;;;;;;4.85;3.45;;;;;;;;;;10430164;28;20127;-83
2022/06/13 04:14:38;;;;;;;4.43;3.60;;;;;;;;;;10419704;28;20049;-82
2022/06/13 04:19:54;;;;;;;4.50;3.42;;;;;;;;;;10445473;28;20109;-83
2022/06/13 04:25:04;;;;;;;3.50;3.20;;;;;;;;;;10443242;28;20045;-82
2022/06/13 04:30:14;;;;;;;3.95;3.38;;;;;;;;;;10405132;28;20053;-83
2022/06/13 04:35:15;;;;;;;5.35;3.25;;;;;;;;;;10439915;28;20053;-80
2022/06/13 04:40:25;;;;;;;6.25;3.47;;;;;;;;;;10427369;28;20090;-81
2022/06/13 04:45:42;;;;;;;3.35;2.78;;;;;;;;;;10428535;28;20074;-83
2022/06/13 04:50:47;;;;;;;2.83;2.47;;;;;;;;;;10453251;28;20072;-81
2022/06/13 04:55:51;;;;;;;5.13;2.92;;;;;;;;;;10427576;28;20059;-83
2022/06/13 05:00:55;;;;;;;3.70;2.50;;;;;;;;;;10400982;28;20127;-82
2022/06/13 05:05:59;;;;;;;3.08;2.60;;;;;;;;;;10417164;28;20033;-84
2022/06/13 05:11:16;;;;;;;3.70;2.53;;;;;;;;;;10424843;28;20499;-78
2022/06/13 05:16:25;;;;;;;3.85;2.53;;;;;;;;;;10412564;28;20151;-82
2022/06/13 05:21:26;;;;;;;3.53;2.20;;;;;;;;;;10415218;28;20046;-82
2022/06/13 05:26:29;;;;;;;5.78;2.50;;;;;;;;;;10383600;28;20049;-81
2022/06/13 05:31:30;;;;;;;4.40;2.25;;;;;;;;;;10397091;28;20041;-81
2022/06/13 05:36:38;;;;;;;4.70;2.30;;;;;;;;;;10405144;28;20065;-80
2022/06/13 05:41:38;;;;;;;3.88;2.38;;;;;;;;;;10402117;28;20037;-82
2022/06/13 05:46:42;;;;;;;4.38;2.40;;;;;;;;;;10391626;28;20519;-83
2022/06/13 05:51:43;;;;;;;4.53;2.55;;;;;;;;;;10382277;28;20048;-83
2022/06/13 05:56:44;;;;;;;3.80;2.50;;;;;;;;;;10330076;28;20077;-83
2022/06/13 06:01:49;;;;;;;5.35;2.40;;;;;;;;;;10349933;28;20496;-82
2022/06/13 06:06:51;;;;;;;5.82;3.50;;;;;;;;;;10373258;28;20059;-82
2022/06/13 06:11:52;;;;;;;5.47;2.65;;;;;;;;;;10375555;28;20137;-81
2022/06/13 06:16:53;;;;;;;4.25;2.45;;;;;;;;;;10352740;28;20054;-75
2022/06/13 06:21:54;;;;;;;3.17;2.00;;;;;;;;;;10375495;28;20048;-81
2022/06/13 06:26:55;;;;;;;5.00;2.63;;;;;;;;;;10397087;28;20073;-79
2022/06/13 06:31:55;;;;;;;4.90;2.28;;;;;;;;;;10357636;28;20292;-82
2022/06/13 06:36:56;;;;;;;5.07;2.15;;;;;;;;;;10372293;28;20176;-80
2022/06/13 06:41:59;;;;;;;4.63;2.42;;;;;;;;;;10365216;28;20132;-81
2022/06/13 06:46:59;;;;;;;4.85;2.30;;;;;;;;;;10366235;28;20124;-81
2022/06/13 06:52:01;;;;;;;4.75;2.40;;;;;;;;;;10402900;28;20117;-80
2022/06/13 07:02:26;;;;;;;4.78;2.53;;;;;;;;;;10403029;28;20109;-82
2022/06/13 07:07:27;;;;;;;4.97;2.70;;;;;;;;;;10404367;28;20044;-82
2022/06/13 07:12:28;;;;;;;5.47;2.63;;;;;;;;;;10418840;28;20109;-80
2022/06/13 07:17:29;;;;;;;5.05;2.60;;;;;;;;;;10395077;28;20133;-81
2022/06/13 07:22:30;;;;;;;7.97;4.07;;;;;;;;;;10364508;28;20049;-80
2022/06/13 07:27:31;;;;;;;7.87;2.70;;;;;;;;;;10400835;28;20041;-81
2022/06/13 07:32:32;;;;;;;5.40;2.60;;;;;;;;;;10412141;28;20280;-81
2022/06/13 07:42:53;;;;;;;6.50;2.63;;;;;;;;;;10425568;28;20363;-78
2022/06/13 07:47:54;;;;;;;;;;;;;;;;;;10409621;28;20046;-79
2022/06/13 07:52:57;;;;;;;6.43;2.60;;;;;;;;;;10397564;28;19948;-80
2022/06/13 07:57:58;;;;;;;3.20;2.58;;;;;;;;;;10371130;28;20053;-76
2022/06/13 08:03:00;;;;;;;6.15;2.63;;;;;;;;;;10381580;28;20074;-80
2022/06/13 08:08:01;;;;;;;;;;;;;;;;;;10391089;28;20129;-79
2022/06/13 08:13:01;;;;;;;4.82;2.10;;;;;;;;;;10857712;22;19967;-83
2022/06/13 08:18:03;;;;;;;6.78;2.72;;;;;;;;;;10490030;28;20064;-80
2022/06/13 08:23:08;;;;;;;3.53;2.13;;;;;;;;;;10418777;28;20070;-81
2022/06/13 08:28:09;;;;;;;5.43;2.63;;;;;;;;;;10450294;28;20041;-75
2022/06/13 08:33:10;;;;;;;5.03;2.78;;;;;;;;;;10488028;28;20115;-80
2022/06/13 08:38:12;;;;;;;8.63;3.40;;;;;;;;;;10499507;28;20121;-79
2022/06/13 08:43:31;;;;;;;4.78;2.58;;;;;;;;;;10498611;28;20116;-79
2022/06/13 08:48:36;;;;;;;6.95;3.60;;;;;;;;;;10443350;28;20045;-79
2022/06/13 08:53:57;;;;;;;4.80;2.50;;;;;;;;;;10458606;28;20123;-80
2022/06/13 08:59:22;;;;;;;7.20;3.40;;;;;;;;;;10460347;28;20130;-81
2022/06/13 09:04:30;;;;;;;6.97;3.38;;;;;;;;;;10486703;28;20043;-79
2022/06/13 09:09:40;;;;;;;10.38;3.60;;;;;;;;;;10482302;28;20100;-79
2022/06/13 09:14:46;;;;;;;7.78;3.25;;;;;;;;;;10475905;28;20074;-82
2022/06/13 09:19:56;;;;;;;8.38;3.50;;;;;;;;;;10491660;28;20075;-82
2022/06/13 09:25:10;;;;;;;7.20;3.38;;;;;;;;;;10481785;28;20104;-80
2022/06/13 09:30:17;;;;;;;6.38;3.00;;;;;;;;;;10442720;28;20033;-80
2022/06/13 09:35:20;;;;;;;7.47;3.05;;;;;;;;;;10484494;28;20064;-80
2022/06/13 09:40:41;;;;;;;8.52;5.68;;;;;;;;;;10477147;28;20132;-80
2022/06/13 09:45:51;;;;;;;5.30;2.65;;;;;;;;;;10432356;28;20036;-81
2022/06/13 09:50:56;;;;;;;5.32;2.33;;;;;;;;;;10475053;28;20041;-79
2022/06/13 09:55:59;;;;;;;4.15;2.20;;;;;;;;;;10482000;28;20136;-79
2022/06/13 10:01:06;;;;;;;6.50;3.33;;;;;;;;;;10450431;28;20190;-79
2022/06/13 10:06:13;;;;;;;4.20;2.88;;;;;;;;;;10466361;28;20117;-81
2022/06/13 10:11:21;;;;;;;6.07;2.60;;;;;;;;;;10469431;28;20067;-79
2022/06/13 10:16:25;;;;;;;5.78;2.28;;;;;;;;;;10439178;28;20068;-79
2022/06/13 10:21:34;;;;;;;5.38;2.40;;;;;;;;;;10453644;28;20058;-76
2022/06/13 10:26:43;;;;;;;6.10;2.67;;;;;;;;;;10462010;28;20159;-78
2022/06/13 10:31:55;;;;;;;3.75;2.03;;;;;;;;;;10471020;28;20056;-75
2022/06/13 10:37:19;;;;;;;6.45;3.42;;;;;;;;;;10450407;28;20075;-78
2022/06/13 10:42:24;;;;;;;7.25;2.63;;;;;;;;;;10400805;28;20052;-78
2022/06/13 10:47:24;;;;;;;3.28;2.10;;;;;;;;;;10484447;28;20048;-78
2022/06/13 10:52:26;;;;;;;5.40;2.30;;;;;;;;;;10480030;28;20071;-80
2022/06/13 10:57:29;;;;;;;5.75;1.90;;;;;;;;;;10490358;28;20079;-81
2022/06/13 11:02:30;;;;;;;10.75;6.00;;;;;;;;;;10463072;28;20055;-80
2022/06/13 11:07:33;;;;;;;5.53;1.83;;;;;;;;;;10475956;28;20120;-79
2022/06/13 11:12:39;;;;;;;4.00;2.17;;;;;;;;;;10488162;28;20067;-79
2022/06/13 11:23:04;;;;;;;4.85;2.03;;;;;;;;;;10481289;28;20041;-75
2022/06/13 11:28:07;;;;;;;2.73;1.80;;;;;;;;;;10455684;28;20052;-74
2022/06/13 11:33:23;;;;;;;2.75;1.92;;;;;;;;;;10480935;28;20040;-73
2022/06/13 11:38:29;;;;;;;6.28;2.35;;;;;;;;;;10461385;28;20141;-75
2022/06/13 11:43:49;;;;;;;5.15;2.38;;;;;;;;;;10486124;28;20773;-74
2022/06/13 11:48:50;;;;;;;3.03;1.52;;;;;;;;;;10466757;28;20128;-71
2022/06/13 11:53:52;;;;;;;8.30;4.07;;;;;;;;;;10470845;28;20045;-77
2022/06/13 11:58:54;;;;;;;3.35;1.60;;;;;;;;;;10466800;28;20103;-74
2022/06/13 12:03:58;;;;;;;1.98;1.40;;;;;;;;;;10474373;28;20049;-74
2022/06/13 12:09:01;;;;;;;2.17;1.48;;;;;;;;;;10462339;28;20049;-75
2022/06/13 12:14:04;;;;;;;4.53;2.75;;;;;;;;;;10463799;28;20136;-72
2022/06/13 12:19:05;;;;;;;1.88;1.50;;;;;;;;;;10482457;28;20080;-75
2022/06/13 12:24:12;;;;;;;30.48;18.92;;;;;;;;;;10447654;28;20136;-73
2022/06/13 12:29:21;;;;;;;17.15;14.55;;;;;;;;;;10462731;28;20098;-73
2022/06/13 12:34:25;;;;;;;59.80;54.15;;;;;;;;;;10441572;28;20052;-78
2022/06/13 12:39:31;;;;;;;80.82;70.57;;;;;;;;;;10473163;28;20072;-73
2022/06/13 12:44:37;;;;;;;45.08;34.97;;;;;;;;;;10435120;28;20445;-74
2022/06/13 12:49:56;;;;;;;32.30;23.85;;;;;;;;;;10455689;28;20037;-75
2022/06/13 12:55:17;;;;;;;4.22;2.58;;;;;;;;;;10438985;28;20172;-73
2022/06/13 13:00:28;;;;;;;5.85;3.08;;;;;;;;;;10459672;28;20420;-73
2022/06/13 13:05:31;;;;;;;3.38;1.45;;;;;;;;;;10468778;28;20128;-72
2022/06/13 13:10:44;;;;;;;3.15;1.55;;;;;;;;;;10461318;28;20434;-76
2022/06/13 13:15:49;;;;;;;3.35;1.73;;;;;;;;;;10472913;28;20053;-73
2022/06/13 13:20:49;;;;;;;7.13;5.60;;;;;;;;;;10451971;28;20048;-75
2022/06/13 13:26:14;;;;;;;4.53;3.37;;;;;;;;;;10471032;28;20044;-70
2022/06/13 13:31:24;;;;;;;5.50;2.22;;;;;;;;;;10473377;28;20275;-72
2022/06/13 13:36:43;;;;;;;2.05;1.60;;;;;;;;;;10468212;27;20397;-72
2022/06/13 13:41:53;;;;;;;3.30;1.90;;;;;;;;;;10461049;28;20113;-73
2022/06/13 13:47:17;;;;;;;2.47;1.42;;;;;;;;;;10452078;28;20099;-68
2022/06/13 13:52:24;;;;;;;4.50;1.70;;;;;;;;;;10471691;28;20536;-71
2022/06/13 13:57:29;;;;;;;4.82;1.73;;;;;;;;;;10461108;28;20056;-71
2022/06/13 14:02:29;;;;;;;3.35;2.17;;;;;;;;;;10459411;28;20090;-72
2022/06/13 14:07:38;;;;;;;6.70;4.17;;;;;;;;;;10467100;28;20067;-71
2022/06/13 14:12:57;;;;;;;3.95;2.20;;;;;;;;;;10460285;28;20045;-72
2022/06/13 14:17:57;;;;;;;4.72;3.13;;;;;;;;;;10453776;28;20076;-72
2022/06/13 14:22:59;;;;;;;5.07;2.30;;;;;;;;;;10460446;28;20518;-71
2022/06/13 14:28:05;;;;;;;3.83;2.20;;;;;;;;;;10456161;28;20052;-70
2022/06/13 14:33:06;;;;;;;3.13;2.25;;;;;;;;;;10449807;28;20514;-72
2022/06/13 14:38:13;;;;;;;2.85;2.33;;;;;;;;;;10454838;28;20052;-71
2022/06/13 14:43:21;;;;;;;3.88;2.15;;;;;;;;;;10456578;28;20091;-73
2022/06/13 14:48:21;;;;;;;4.78;2.08;;;;;;;;;;10428860;28;20134;-71
2022/06/13 14:53:24;;;;;;;4.90;2.13;;;;;;;;;;10429987;28;20175;-70
2022/06/13 14:58:46;;;;;;;3.78;2.30;;;;;;;;;;10432347;28;20780;-77
2022/06/13 15:03:59;;;;;;;2.72;2.00;;;;;;;;;;10430072;28;20038;-77
2022/06/13 15:09:14;;;;;;;5.45;2.42;;;;;;;;;;10418116;28;20048;-76
2022/06/13 15:14:17;;;;;;;2.70;1.85;;;;;;;;;;10435271;28;20502;-76
2022/06/13 15:19:18;;;;;;;3.20;2.08;;;;;;;;;;10432313;28;20801;-76
2022/06/13 15:24:19;;;;;;;4.57;2.05;;;;;;;;;;10428456;28;20080;-78
2022/06/13 15:29:22;;;;;;;3.00;2.13;;;;;;;;;;10436280;28;20128;-77
2022/06/13 15:34:22;;;;;;;;;;;;;;;;;;10426593;28;20473;-78
2022/06/13 15:39:23;;;;;;;5.38;2.45;;;;;;;;;;10427445;28;19991;-76
2022/06/13 15:44:28;;;;;;;4.28;2.17;;;;;;;;;;10428247;28;20099;-77
2022/06/13 15:49:35;;;;;;;3.60;2.25;;;;;;;;;;10436996;28;20068;-80
2022/06/13 15:54:40;;;;;;;3.25;2.35;;;;;;;;;;10442053;28;20381;-77
2022/06/13 15:59:57;;;;;;;4.47;2.28;;;;;;;;;;10439699;28;20060;-78
2022/06/13 16:04:58;;;;;;;3.83;2.10;;;;;;;;;;10430902;28;20120;-78
2022/06/13 16:09:59;;;;;;;3.53;2.38;;;;;;;;;;10426087;28;20052;-78
2022/06/13 16:15:00;;;;;;;6.00;3.95;;;;;;;;;;10428007;28;20056;-78
2022/06/13 16:20:23;;;;;;;4.35;2.15;;;;;;;;;;10448551;28;20029;-80
2022/06/13 16:25:24;;;;;;;4.80;2.47;;;;;;;;;;10432033;28;20052;-78
2022/06/13 16:30:35;;;;;;;4.87;3.13;;;;;;;;;;10444999;28;20047;-78
2022/06/13 16:35:40;;;;;;;5.45;2.45;;;;;;;;;;10460364;28;20083;-80
2022/06/13 16:40:41;;;;;;;6.07;2.33;;;;;;;;;;10426924;28;20038;-78
2022/06/13 16:45:43;;;;;;;3.33;2.50;;;;;;;;;;10432120;28;20041;-75
2022/06/13 16:50:43;;;;;;;;;;;;;;;;;;10436821;28;20037;-79
2022/06/13 16:55:50;;;;;;;3.90;2.65;;;;;;;;;;10426303;28;20360;-77
2022/06/13 17:01:00;;;;;;;10.88;4.25;;;;;;;;;;10438137;28;20186;-76
2022/06/13 17:06:01;;;;;;;3.50;2.58;;;;;;;;;;10441046;28;20156;-78
2022/06/13 17:11:03;;;;;;;4.07;2.63;;;;;;;;;;10435829;28;20110;-77
2022/06/13 17:16:05;;;;;;;3.88;2.92;;;;;;;;;;10436010;28;20307;-75
2022/06/13 17:21:06;;;;;;;3.70;2.90;;;;;;;;;;10434637;28;20398;-75
2022/06/13 17:36:46;;;;;;;9.27;3.47;;;;;;;;;;10452838;28;20060;-77
2022/06/13 17:41:49;;;;;;;5.27;3.20;;;;;;;;;;10435459;28;20041;-74
2022/06/13 17:46:50;;;;;;;4.30;3.28;;;;;;;;;;10452847;28;20212;-77
2022/06/13 17:51:52;;;;;;;4.53;3.05;;;;;;;;;;10443146;28;20098;-73
2022/06/13 17:56:55;;;;;;;5.07;3.40;;;;;;;;;;10436424;28;20890;-72
2022/06/13 18:01:59;;;;;;;4.05;3.05;;;;;;;;;;10414663;28;20054;-74
2022/06/13 18:06:59;;;;;;;4.68;3.15;;;;;;;;;;10428312;28;20132;-74
2022/06/13 18:12:01;;;;;;;6.40;3.50;;;;;;;;;;10423054;28;20513;-76
2022/06/13 18:17:03;;;;;;;8.02;5.43;;;;;;;;;;10421193;28;20476;-78
2022/06/13 18:22:03;;;;;;;5.75;3.20;;;;;;;;;;10427829;28;20041;-78
2022/06/13 18:27:06;;;;;;;5.80;3.30;;;;;;;;;;10428416;28;20049;-75
2022/06/13 18:32:06;;;;;;;;;;;;;;;;;;10426879;28;20544;-75
2022/06/13 18:37:07;;;;;;;5.38;3.45;;;;;;;;;;10425533;28;20012;-76
2022/06/13 18:42:08;;;;;;;5.70;3.50;;;;;;;;;;10448444;28;20460;-77
2022/06/13 18:47:09;;;;;;;5.85;3.40;;;;;;;;;;10426556;28;20319;-76
2022/06/13 18:52:10;;;;;;;6.97;4.10;;;;;;;;;;10424282;28;20075;-76
2022/06/13 18:57:11;;;;;;;4.88;3.50;;;;;;;;;;10425570;28;20344;-76
2022/06/13 19:02:12;;;;;;;5.23;3.20;;;;;;;;;;10439012;28;20049;-75
2022/06/13 19:07:14;;;;;;;5.95;3.75;;;;;;;;;;10429056;28;20334;-77
2022/06/13 19:12:16;;;;;;;4.85;3.67;;;;;;;;;;10425721;28;20797;-77
2022/06/13 19:17:18;;;;;;;4.30;3.87;;;;;;;;;;10434679;28;20049;-79
2022/06/13 19:22:19;;;;;;;5.15;3.45;;;;;;;;;;10437407;28;20045;-78
2022/06/13 19:27:19;;;;;;;7.25;3.80;;;;;;;;;;10422218;28;20116;-77
2022/06/13 19:32:21;;;;;;;6.20;3.75;;;;;;;;;;10446985;28;20042;-78
2022/06/13 19:37:22;;;;;;;4.65;4.00;;;;;;;;;;10440909;28;20048;-76
2022/06/13 19:42:23;;;;;;;5.07;3.92;;;;;;;;;;10424413;28;20045;-78
2022/06/13 19:47:24;;;;;;;8.40;4.17;;;;;;;;;;10427134;28;20091;-77
2022/06/13 19:57:47;;;;;;;8.52;5.78;;;;;;;;;;10442419;28;20284;-77
2022/06/13 20:02:47;;;;;;;6.85;4.88;;;;;;;;;;10437748;28;20052;-78
2022/06/13 20:13:09;;;;;;;5.47;4.63;;;;;;;;;;10434604;28;20175;-76
2022/06/13 20:18:09;;;;;;;;;;;;;;;;;;10448707;28;20132;-77
2022/06/13 20:23:12;;;;;;;7.40;5.20;;;;;;;;;;10443263;28;19947;-80
2022/06/13 20:28:18;;;;;;;7.55;5.55;;;;;;;;;;10444211;28;20057;-83
2022/06/13 20:33:37;;;;;;;7.70;5.18;;;;;;;;;;10469773;28;20267;-81
2022/06/13 20:39:22;;;;;;;7.35;4.70;;;;;;;;;;10442883;28;20037;-82
2022/06/13 20:44:56;;;;;;;;;;;;;;;;;;;;;
2022/06/13 20:50:22;;;;;;;6.13;4.88;;;;;;;;;;10444999;28;20063;-81
2022/06/13 21:01:18;;;;;;;;;;;;;;;;;;;;;
2022/06/13 21:06:27;;;;;;;9.50;5.68;;;;;;;;;;10418632;28;20045;-82
2022/06/13 21:11:36;;;;;;;7.20;5.45;;;;;;;;;;10486565;28;20045;-84
2022/06/13 21:22:38;;;;;;;8.35;4.90;;;;;;;;;;10495471;28;20044;-82
2022/06/13 21:27:42;;;;;;;9.18;6.35;;;;;;;;;;10443831;28;20071;-81
2022/06/13 21:33:15;;;;;;;8.38;5.85;;;;;;;;;;10459640;28;20061;-82
2022/06/13 21:38:47;;;;;;;9.18;5.95;;;;;;;;;;10411014;28;20108;-84
2022/06/13 21:44:36;;;;;;;10.32;6.50;;;;;;;;;;10433430;28;20200;-80
2022/06/13 21:49:41;;;;;;;9.57;6.20;;;;;;;;;;10420714;28;20041;-82
2022/06/13 21:54:57;;;;;;;;;;;;;;;;;;;;;
2022/06/13 22:00:12;;;;;;;8.93;6.55;;;;;;;;;;10411076;28;20061;-85
2022/06/13 22:05:37;;;;;;;6.95;5.57;;;;;;;;;;10377001;28;20045;-81
2022/06/13 22:10:48;;;;;;;8.40;5.82;;;;;;;;;;10387236;28;20049;-81
2022/06/13 22:15:51;;;;;;;7.45;5.28;;;;;;;;;;10406435;28;20061;-82
2022/06/13 22:20:55;;;;;;;9.67;5.90;;;;;;;;;;10411339;28;20558;-82
2022/06/13 22:25:55;;;;;;;8.23;5.55;;;;;;;;;;10390840;28;20100;-81
2022/06/13 22:30:58;;;;;;;8.48;5.78;;;;;;;;;;10414570;28;20091;-80
2022/06/13 22:36:05;;;;;;;7.15;6.03;;;;;;;;;;10432600;28;20100;-83
2022/06/13 22:41:06;;;;;;;7.15;5.72;;;;;;;;;;10462763;28;20021;-81
2022/06/13 22:46:08;;;;;;;12.48;5.93;;;;;;;;;;10458654;28;20052;-85
2022/06/13 22:51:17;;;;;;;8.32;5.65;;;;;;;;;;10474890;28;20052;-84
2022/06/13 22:56:33;;;;;;;7.20;5.78;;;;;;;;;;10467782;28;20099;-83
2022/06/13 23:01:34;;;;;;;6.38;5.20;;;;;;;;;;10474280;28;20054;-82
2022/06/13 23:06:41;;;;;;;6.80;5.93;;;;;;;;;;10431347;28;20045;-82
2022/06/13 23:11:47;;;;;;;7.05;5.60;;;;;;;;;;10418289;28;20132;-84
2022/06/13 23:16:50;;;;;;;6.88;5.20;;;;;;;;;;10444774;28;20056;-83
2022/06/13 23:21:52;;;;;;;6.47;5.78;;;;;;;;;;10473102;28;20073;-84
2022/06/13 23:26:55;;;;;;;7.20;5.40;;;;;;;;;;10496509;28;20052;-82
2022/06/13 23:31:55;;;;;;;7.35;5.25;;;;;;;;;;10494600;28;20093;-83
2022/06/13 23:36:56;;;;;;;9.63;6.35;;;;;;;;;;10453629;28;20048;-85
2022/06/13 23:41:58;;;;;;;8.13;5.90;;;;;;;;;;10503906;28;20074;-82
2022/06/13 23:47:05;;;;;;;8.90;5.38;;;;;;;;;;10508474;28;20044;-85
2022/06/13 23:52:06;;;;;;;8.57;5.40;;;;;;;;;;10477023;28;20048;-81
2022/06/13 23:57:06;;;;;;;6.40;5.20;;;;;;;;;;10469436;28;20473;-81
